createdAt,value
2022-08-15T00:01:44.169Z,8.13
2022-08-15T00:04:50.727Z,7.87
2022-08-15T00:07:53.447Z,7.70
2022-08-15T00:11:19.478Z,7.60
2022-08-15T00:14:34.554Z,8.10
2022-08-15T00:17:47.957Z,8.27
2022-08-15T00:20:50.960Z,8.20
2022-08-15T00:23:52.750Z,8.77
2022-08-15T00:26:56.601Z,7.37
2022-08-15T00:29:59.660Z,7.73
2022-08-15T00:33:20.618Z,8.37
2022-08-15T00:36:51.819Z,7.97
2022-08-15T00:39:48.140Z,7.73
2022-08-15T00:42:58.835Z,8.27
2022-08-15T00:46:04.720Z,7.83
2022-08-15T00:49:17.682Z,7.53
2022-08-15T00:52:30.582Z,8.23
2022-08-15T00:55:36.000Z,7.63
2022-08-15T00:58:38.405Z,8.03
2022-08-15T01:01:58.588Z,7.37
2022-08-15T01:05:16.406Z,8.20
2022-08-15T01:08:27.862Z,7.90
2022-08-15T01:11:38.049Z,8.00
2022-08-15T01:14:55.521Z,8.43
2022-08-15T01:18:00.151Z,7.93
2022-08-15T01:21:24.808Z,8.13
2022-08-15T01:25:17.244Z,7.93
2022-08-15T01:28:04.108Z,7.83
2022-08-15T01:31:13.143Z,8.07
2022-08-15T01:34:17.709Z,8.33
2022-08-15T01:37:21.164Z,7.97
2022-08-15T01:40:54.841Z,8.17
2022-08-15T01:44:24.846Z,8.60
2022-08-15T01:47:43.807Z,7.70
2022-08-15T01:50:50.553Z,8.50
2022-08-15T01:54:09.115Z,7.70
2022-08-15T01:57:12.515Z,7.73
2022-08-15T02:00:18.995Z,8.00
2022-08-15T02:03:21.810Z,8.87
2022-08-15T02:06:35.312Z,8.27
2022-08-15T02:09:51.603Z,7.90
2022-08-15T02:13:12.743Z,8.67
2022-08-15T02:16:19.783Z,8.60
2022-08-15T02:19:22.485Z,8.63
2022-08-15T02:22:26.858Z,8.30
2022-08-15T02:25:36.869Z,7.97
2022-08-15T02:28:44.409Z,8.30
2022-08-15T02:31:46.374Z,8.50
2022-08-15T02:34:49.681Z,8.43
2022-08-15T02:37:58.349Z,8.73
2022-08-15T02:41:00.541Z,8.33
2022-08-15T02:44:02.980Z,8.57
2022-08-15T02:47:09.124Z,8.67
2022-08-15T02:50:14.399Z,8.07
2022-08-15T02:53:21.240Z,8.10
2022-08-15T02:56:30.736Z,8.17
2022-08-15T02:59:33.168Z,8.00
2022-08-15T03:03:01.241Z,8.00
2022-08-15T03:06:03.250Z,8.30
2022-08-15T03:09:08.350Z,9.27
2022-08-15T03:12:29.902Z,9.03
2022-08-15T03:15:56.857Z,8.63
2022-08-15T03:18:59.748Z,9.47
2022-08-15T03:22:01.633Z,12.33
2022-08-15T03:25:08.981Z,10.17
2022-08-15T03:28:27.293Z,9.87
2022-08-15T03:31:30.818Z,9.00
2022-08-15T03:34:46.723Z,9.30
2022-08-15T03:37:59.793Z,9.63
2022-08-15T03:41:09.550Z,10.20
2022-08-15T03:44:26.759Z,9.00
2022-08-15T03:47:30.295Z,8.77
2022-08-15T03:50:35.940Z,8.67
2022-08-15T03:53:52.572Z,9.13
2022-08-15T03:56:57.909Z,8.90
2022-08-15T03:59:59.586Z,8.70
2022-08-15T04:03:27.236Z,9.03
2022-08-15T04:06:32.105Z,9.07
2022-08-15T04:09:33.921Z,9.07
2022-08-15T04:12:46.161Z,11.77
2022-08-15T04:16:06.279Z,9.30
2022-08-15T04:19:10.370Z,8.70
2022-08-15T04:22:12.140Z,9.57
2022-08-15T04:25:38.394Z,8.87
2022-08-15T04:28:54.279Z,9.07
2022-08-15T04:31:57.608Z,9.30
2022-08-15T04:35:03.445Z,10.87
2022-08-15T04:38:08.255Z,10.13
2022-08-15T04:41:17.954Z,10.27
2022-08-15T04:44:30.794Z,8.77
2022-08-15T04:47:35.604Z,9.30
2022-08-15T04:50:39.458Z,9.50
2022-08-15T04:53:53.959Z,12.07
2022-08-15T04:56:58.999Z,10.23
2022-08-15T05:00:04.855Z,9.27
2022-08-15T05:03:15.030Z,8.80
2022-08-15T05:06:31.235Z,9.17
2022-08-15T05:09:34.086Z,10.77
2022-08-15T05:12:55.815Z,10.07
2022-08-15T05:16:02.925Z,8.50
2022-08-15T05:19:07.715Z,10.70
2022-08-15T05:22:11.400Z,10.47
2022-08-15T05:25:13.946Z,9.83
2022-08-15T05:28:29.296Z,9.23
2022-08-15T05:31:33.799Z,8.57
2022-08-15T05:34:37.672Z,8.77
2022-08-15T05:37:47.237Z,9.60
2022-08-15T05:40:54.986Z,9.87
2022-08-15T05:44:01.911Z,10.20
2022-08-15T05:47:22.513Z,9.90
2022-08-15T05:50:33.113Z,9.40
2022-08-15T05:53:55.193Z,8.77
2022-08-15T05:57:17.537Z,8.60
2022-08-15T06:00:19.638Z,9.40
2022-08-15T06:03:41.386Z,9.10
2022-08-15T06:06:47.522Z,8.67
2022-08-15T06:09:55.390Z,8.73
2022-08-15T06:13:33.370Z,8.70
2022-08-15T06:16:48.238Z,8.67
2022-08-15T06:19:52.728Z,8.30
2022-08-15T06:23:37.225Z,8.03
2022-08-15T06:27:19.684Z,7.97
2022-08-15T06:31:15.460Z,7.87
2022-08-15T06:34:54.172Z,7.83
2022-08-15T06:38:31.000Z,7.70
2022-08-15T06:41:52.159Z,7.53
2022-08-15T06:45:01.584Z,7.70
2022-08-15T06:48:58.655Z,7.70
2022-08-15T06:51:44.505Z,7.10
2022-08-15T06:54:50.424Z,7.17
2022-08-15T06:58:54.878Z,7.47
2022-08-15T07:02:15.622Z,7.47
2022-08-15T07:05:42.861Z,7.60
2022-08-15T07:09:24.339Z,7.03
2022-08-15T07:12:36.037Z,7.37
2022-08-15T07:16:19.662Z,7.23
2022-08-15T07:19:22.358Z,7.37
2022-08-15T07:22:35.096Z,7.00
2022-08-15T07:25:37.784Z,7.43
2022-08-15T07:28:50.407Z,7.40
2022-08-15T07:32:04.378Z,8.85
2022-08-15T07:35:26.309Z,7.78
2022-08-15T07:38:32.453Z,7.70
2022-08-15T07:41:40.661Z,7.22
2022-08-15T07:45:24.969Z,7.97
2022-08-15T07:48:30.273Z,9.07
2022-08-15T07:51:46.564Z,8.32
2022-08-15T07:54:53.353Z,7.25
2022-08-15T07:58:02.063Z,6.95
2022-08-15T08:01:34.361Z,7.82
2022-08-15T08:04:45.128Z,8.07
2022-08-15T08:07:51.702Z,7.75
2022-08-15T08:11:04.660Z,7.53
2022-08-15T08:14:40.448Z,7.28
2022-08-15T08:17:56.434Z,8.13
2022-08-15T08:21:07.514Z,7.57
2022-08-15T08:24:20.415Z,9.30
2022-08-15T08:27:53.683Z,7.40
2022-08-15T08:31:19.333Z,7.82
2022-08-15T08:34:48.062Z,7.00
2022-08-15T08:39:03.849Z,7.03
2022-08-15T08:41:57.736Z,7.05
2022-08-15T08:45:05.328Z,6.75
2022-08-15T08:48:21.055Z,7.75
2022-08-15T08:51:46.179Z,7.32
2022-08-15T08:55:08.395Z,7.40
2022-08-15T08:58:36.807Z,7.55
2022-08-15T09:01:38.095Z,7.07
2022-08-15T09:04:49.009Z,7.28
2022-08-15T09:07:56.560Z,7.10
2022-08-15T09:11:05.786Z,7.70
2022-08-15T09:14:32.768Z,7.32
2022-08-15T09:17:56.361Z,7.07
2022-08-15T09:21:00.920Z,7.72
2022-08-15T09:24:05.747Z,7.35
2022-08-15T09:27:54.884Z,7.32
2022-08-15T09:31:23.604Z,7.60
2022-08-15T09:34:45.380Z,7.95
2022-08-15T09:38:25.981Z,8.07
2022-08-15T09:42:33.753Z,8.35
2022-08-15T09:45:56.934Z,8.73
2022-08-15T09:49:23.338Z,8.52
2022-08-15T09:52:46.473Z,8.15
2022-08-15T09:55:53.985Z,8.10
2022-08-15T09:59:26.359Z,7.65
2022-08-15T10:02:37.260Z,7.80
2022-08-15T10:05:44.113Z,7.30
2022-08-15T10:08:54.824Z,7.70
2022-08-15T10:12:07.641Z,8.40
2022-08-15T10:15:42.605Z,8.48
2022-08-15T10:18:47.257Z,8.13
2022-08-15T10:22:45.192Z,7.78
2022-08-15T10:25:49.155Z,7.70
2022-08-15T10:29:19.831Z,7.93
2022-08-15T10:32:51.795Z,7.90
2022-08-15T10:36:04.017Z,8.60
2022-08-15T10:39:37.169Z,8.93
2022-08-15T10:43:04.461Z,8.70
2022-08-15T10:46:44.508Z,8.43
2022-08-15T10:50:44.116Z,7.82
2022-08-15T10:53:58.401Z,9.05
2022-08-15T10:57:09.263Z,8.10
2022-08-15T11:00:37.242Z,8.60
2022-08-15T11:04:58.241Z,9.02
2022-08-15T11:07:30.331Z,8.73
2022-08-15T11:10:34.180Z,9.00
2022-08-15T11:13:37.936Z,8.80
2022-08-15T11:16:56.812Z,9.10
2022-08-15T11:20:14.533Z,8.90
2022-08-15T11:23:37.156Z,9.43
2022-08-15T11:26:42.920Z,8.77
2022-08-15T11:29:53.367Z,9.02
2022-08-15T11:32:55.926Z,8.98
2022-08-15T11:36:29.736Z,8.00
2022-08-15T11:39:32.874Z,7.00
2022-08-15T11:42:58.203Z,6.27
2022-08-15T11:46:01.893Z,6.32
2022-08-15T11:50:03.697Z,6.20
2022-08-15T11:53:09.678Z,7.00
2022-08-15T11:56:21.921Z,6.27
2022-08-15T11:59:37.474Z,5.80
2022-08-15T12:06:29.374Z,5.30
2022-08-15T12:09:43.069Z,5.17
2022-08-15T12:12:50.198Z,5.40
2022-08-15T12:13:09.336Z,6.43
2022-08-15T12:16:00.853Z,5.70
2022-08-15T12:19:25.100Z,5.90
2022-08-15T12:22:45.053Z,5.97
2022-08-15T12:26:01.928Z,6.80
2022-08-15T12:29:25.403Z,6.43
2022-08-15T12:32:36.493Z,5.93
2022-08-15T12:36:00.505Z,6.80
2022-08-15T12:39:00.820Z,6.50
2022-08-15T12:42:47.475Z,6.97
2022-08-15T12:45:25.560Z,6.97
2022-08-15T12:48:57.344Z,7.20
2022-08-15T12:52:26.047Z,6.18
2022-08-15T12:55:27.961Z,6.37
2022-08-15T12:58:29.646Z,5.97
2022-08-15T13:01:36.901Z,6.00
2022-08-15T13:04:57.494Z,6.23
2022-08-15T13:08:06.684Z,6.10
2022-08-15T13:11:22.851Z,6.23
2022-08-15T13:14:25.011Z,6.50
2022-08-15T13:17:47.227Z,6.03
2022-08-15T13:21:08.568Z,6.87
2022-08-15T13:24:17.041Z,6.27
2022-08-15T13:27:22.507Z,6.60
2022-08-15T13:30:36.672Z,6.47
2022-08-15T13:33:43.489Z,6.50
2022-08-15T13:36:55.024Z,6.27
2022-08-15T13:39:57.905Z,5.77
2022-08-15T13:43:09.980Z,5.30
2022-08-15T13:46:29.947Z,5.30
2022-08-15T13:49:33.958Z,5.10
2022-08-15T13:52:46.146Z,5.40
2022-08-15T13:55:48.926Z,6.03
2022-08-15T13:59:32.380Z,7.03
2022-08-15T14:02:37.333Z,6.67
2022-08-15T14:05:43.364Z,5.90
2022-08-15T14:09:06.425Z,6.70
2022-08-15T14:12:09.982Z,5.80
2022-08-15T14:15:14.338Z,5.53
2022-08-15T14:18:50.852Z,8.07
2022-08-15T14:21:50.624Z,7.10
2022-08-15T14:24:53.980Z,10.03
2022-08-15T14:28:08.165Z,6.50
2022-08-15T14:31:21.637Z,6.87
2022-08-15T14:37:52.924Z,6.90
2022-08-15T14:40:55.942Z,8.83
2022-08-15T14:43:59.767Z,6.67
2022-08-15T14:47:03.033Z,8.37
2022-08-15T14:50:53.973Z,7.70
2022-08-15T14:53:31.299Z,7.47
2022-08-15T14:56:35.329Z,6.50
2022-08-15T14:59:56.325Z,6.60
2022-08-15T15:03:00.842Z,8.63
2022-08-15T15:06:06.404Z,7.17
2022-08-15T15:09:14.761Z,7.50
2022-08-15T15:12:17.135Z,7.93
2022-08-15T15:15:19.307Z,7.47
2022-08-15T15:18:38.265Z,6.57
2022-08-15T15:21:47.460Z,7.33
2022-08-15T15:24:52.351Z,6.87
2022-08-15T15:27:59.496Z,6.27
2022-08-15T15:31:20.932Z,6.23
2022-08-15T15:34:33.046Z,5.77
2022-08-15T15:37:36.775Z,5.83
2022-08-15T15:40:39.008Z,5.50
2022-08-15T15:43:41.336Z,6.30
2022-08-15T15:46:46.834Z,5.63
2022-08-15T15:49:53.299Z,10.20
2022-08-15T15:53:00.741Z,5.77
2022-08-15T15:56:38.448Z,7.93
2022-08-15T15:59:24.502Z,7.37
2022-08-15T16:02:50.959Z,7.40
2022-08-15T16:06:04.404Z,5.77
2022-08-15T16:09:20.853Z,6.13
2022-08-15T16:13:00.405Z,6.57
2022-08-15T16:15:52.052Z,5.57
2022-08-15T16:19:14.995Z,5.80
2022-08-15T16:22:30.211Z,7.70
2022-08-15T16:25:41.588Z,6.57
2022-08-15T16:28:52.158Z,6.87
2022-08-15T16:31:56.829Z,6.00
2022-08-15T16:34:59.594Z,7.10
2022-08-15T16:39:06.289Z,7.17
2022-08-15T16:42:41.031Z,6.50
2022-08-15T16:45:59.486Z,8.00
2022-08-15T16:49:23.135Z,6.83
2022-08-15T16:52:31.835Z,9.87
2022-08-15T16:55:41.506Z,6.87
2022-08-15T16:59:06.526Z,9.30
2022-08-15T17:03:04.059Z,6.93
2022-08-15T17:05:59.983Z,6.13
2022-08-15T17:09:21.287Z,6.57
2022-08-15T17:12:28.935Z,6.23
2022-08-15T17:15:37.503Z,7.53
2022-08-15T17:18:59.485Z,10.77
2022-08-15T17:22:08.047Z,7.27
2022-08-15T17:25:15.421Z,6.73
2022-08-15T17:28:37.991Z,7.17
2022-08-15T17:31:42.497Z,7.10
2022-08-15T17:34:47.209Z,6.13
2022-08-15T17:37:49.416Z,7.57
2022-08-15T17:40:57.128Z,9.17
2022-08-15T17:44:15.637Z,8.70
2022-08-15T17:47:33.953Z,7.17
2022-08-15T17:50:48.785Z,6.83
2022-08-15T17:54:22.257Z,8.90
2022-08-15T17:58:01.922Z,6.70
2022-08-15T18:01:05.010Z,6.90
2022-08-15T18:04:08.767Z,5.57
2022-08-15T18:07:11.768Z,6.13
2022-08-15T18:10:44.528Z,6.80
2022-08-15T18:13:42.690Z,12.20
2022-08-15T18:17:02.153Z,12.13
2022-08-15T18:20:34.692Z,7.57
2022-08-15T18:23:48.490Z,5.97
2022-08-15T18:26:58.175Z,6.37
2022-08-15T18:30:01.984Z,8.90
2022-08-15T18:33:17.457Z,6.10
2022-08-15T18:36:33.412Z,7.07
2022-08-15T18:39:56.660Z,6.23
2022-08-15T18:43:05.553Z,6.77
2022-08-15T18:46:11.633Z,9.13
2022-08-15T18:49:16.779Z,8.17
2022-08-15T18:52:25.704Z,6.17
2022-08-15T18:55:33.805Z,6.50
2022-08-15T18:58:40.741Z,7.63
2022-08-15T19:01:51.896Z,7.07
2022-08-15T19:05:22.467Z,7.93
2022-08-15T19:08:37.641Z,8.07
2022-08-15T19:11:45.161Z,8.80
2022-08-15T19:14:52.966Z,7.20
2022-08-15T19:18:37.820Z,10.57
2022-08-15T19:21:40.409Z,6.27
2022-08-15T19:24:42.273Z,5.63
2022-08-15T19:28:39.604Z,9.30
2022-08-15T19:31:52.133Z,8.57
2022-08-15T19:35:21.868Z,6.87
2022-08-15T19:39:08.409Z,6.10
2022-08-15T19:42:31.916Z,6.00
2022-08-15T19:46:04.802Z,6.03
2022-08-15T19:49:35.579Z,6.10
2022-08-15T19:53:09.081Z,9.47
2022-08-15T19:56:29.470Z,6.63
2022-08-15T19:59:42.773Z,10.13
2022-08-15T20:03:09.817Z,6.73
2022-08-15T20:06:32.621Z,6.10
2022-08-15T20:10:09.559Z,7.10
2022-08-15T20:13:40.729Z,5.60
2022-08-15T20:18:01.221Z,5.37
2022-08-15T20:21:38.875Z,4.90
2022-08-15T20:24:45.522Z,4.77
2022-08-15T20:27:53.878Z,4.97
2022-08-15T20:31:06.402Z,4.87
2022-08-15T20:34:09.184Z,5.13
2022-08-15T20:37:25.720Z,6.10
2022-08-15T20:40:34.669Z,6.10
2022-08-15T20:43:52.029Z,6.20
2022-08-15T20:47:03.526Z,8.50
2022-08-15T20:50:10.714Z,5.23
2022-08-15T20:53:25.526Z,6.70
2022-08-15T20:56:40.533Z,6.97
2022-08-15T20:59:56.035Z,5.90
2022-08-15T21:04:01.799Z,6.00
2022-08-15T21:07:03.425Z,5.00
2022-08-15T21:10:41.637Z,5.37
2022-08-15T21:13:58.618Z,6.63
2022-08-15T21:17:19.485Z,6.00
2022-08-15T21:21:03.220Z,5.60
2022-08-15T21:24:18.164Z,5.50
2022-08-15T21:27:26.062Z,5.10
2022-08-15T21:31:00.612Z,4.80
2022-08-15T21:34:31.740Z,4.83
2022-08-15T21:37:52.849Z,4.83
2022-08-15T21:40:55.152Z,5.73
2022-08-15T21:44:17.252Z,5.00
2022-08-15T21:47:37.294Z,6.17
2022-08-15T21:50:48.635Z,7.37
2022-08-15T21:53:54.719Z,6.37
2022-08-15T21:57:03.761Z,6.57
2022-08-15T22:00:28.247Z,8.73
2022-08-15T22:03:39.886Z,7.17
2022-08-15T22:06:44.450Z,6.00
2022-08-15T22:10:16.504Z,5.90
2022-08-15T22:13:11.624Z,5.60
2022-08-15T22:16:37.902Z,6.17
2022-08-15T22:19:41.092Z,5.80
2022-08-15T22:22:46.745Z,5.40
2022-08-15T22:25:58.679Z,5.30
2022-08-15T22:29:18.083Z,5.33
2022-08-15T22:32:31.614Z,5.73
2022-08-15T22:35:39.821Z,5.33
2022-08-15T22:38:42.373Z,5.07
2022-08-15T22:41:53.153Z,5.63
2022-08-15T22:44:57.764Z,5.77
2022-08-15T22:47:59.970Z,5.47
2022-08-15T22:51:32.240Z,5.10
2022-08-15T22:54:35.897Z,5.63
2022-08-15T22:57:58.947Z,5.77
2022-08-15T23:01:03.211Z,5.50
2022-08-15T23:04:39.839Z,5.20
2022-08-15T23:08:03.314Z,5.37
2022-08-15T23:11:13.221Z,5.17
2022-08-15T23:14:24.900Z,5.00
2022-08-15T23:17:39.877Z,5.37
2022-08-15T23:20:46.709Z,5.60
2022-08-15T23:23:53.344Z,6.03
2022-08-15T23:26:58.791Z,5.60
2022-08-15T23:30:31.132Z,6.00
2022-08-15T23:33:53.528Z,6.10
2022-08-15T23:37:13.572Z,5.57
2022-08-15T23:40:19.172Z,6.10
2022-08-15T23:43:33.458Z,5.80
2022-08-15T23:46:37.838Z,5.77
2022-08-15T23:49:52.989Z,5.60
2022-08-15T23:53:00.615Z,5.87
2022-08-15T23:56:32.006Z,6.30
2022-08-15T23:59:40.838Z,7.13
